»·PEaware :: AWE2180 KABQ-KPHX

AWE2180 :: KABQ-KPHX

FLIGHT INFORMATION

Flight Status: Arrived
Operator:
US Airways
More flights by this operator :: More flights under this callsign
Pilot: Jim M. (18055)
Aircraft: BOEING 737-300
(B733)
More flights by this aircraft type
Origin: KABQ Albuquerque Intl Sunport
United States
Destination: KPHX Phoenix Sky Harbor Intl
United States
More flights between these airports :: More routes between these airports
Route: RDRNR3 ZUN EAGUL6
File this flight plan on PilotEdge
Remarks:
Altitude:
(Current/Filed)
34,000ft
Speed:
(Current/Filed)
450kts
Departed: 03-May-19 10:35 AM
Arrived: 03-May-19 11:33 AM
Distance/Time
Traveled:
284nm/0:58
Distance/Time
To Go:
Arrived

Flight Plot

Page will automatically refresh every two minutes.


Map Options




Map Legend


Flown Route
Filed Route
Departure Airport
Arrival Airport
Navaid (VOR, NDB)
Fix

Horizontal Profiles

Position Reports

Time Latitude Longitude Heading Altitude Ground
Speed
03-May-19 10:04 35.047898 -106.618145 179 5307ft 0kts
03-May-19 10:05 35.047898 -106.618145 179 5307ft 0kts
03-May-19 10:06 35.047898 -106.618145 179 5307ft 0kts
03-May-19 10:07 35.047898 -106.618145 179 5307ft 0kts
03-May-19 10:08 35.047898 -106.618145 179 5307ft 0kts
03-May-19 10:09 35.047898 -106.618145 179 5307ft 0kts
03-May-19 10:10 35.047898 -106.618145 179 5307ft 0kts
03-May-19 10:11 35.047898 -106.618145 179 5307ft 0kts
03-May-19 10:12 35.047898 -106.618145 179 5307ft 0kts
03-May-19 10:13 35.047898 -106.618145 179 5307ft 0kts
03-May-19 10:14 35.047898 -106.618145 179 5307ft 0kts
03-May-19 10:15 35.047898 -106.618145 179 5307ft 0kts
03-May-19 10:16 35.047898 -106.618145 179 5307ft 0kts
03-May-19 10:17 35.047898 -106.618145 179 5307ft 0kts
03-May-19 10:18 35.047898 -106.618145 179 5307ft 0kts
03-May-19 10:19 35.047898 -106.618145 179 5307ft 0kts
03-May-19 10:20 35.047898 -106.618145 179 5307ft 0kts
03-May-19 10:21 35.047898 -106.618145 179 5307ft 0kts
03-May-19 10:22 35.047898 -106.618145 179 5307ft 0kts
03-May-19 10:23 35.047898 -106.618145 179 5307ft 0kts
03-May-19 10:24 35.048107 -106.618148 185 5306ft 2kts
03-May-19 10:25 35.048428 -106.617769 254 5306ft 0kts
03-May-19 10:26 35.048428 -106.617769 253 5306ft 0kts
03-May-19 10:27 35.048428 -106.617769 254 5306ft 0kts
03-May-19 10:28 35.048428 -106.617769 254 5306ft 0kts
03-May-19 10:29 35.048377 -106.619070 267 5304ft 8kts
03-May-19 10:30 35.048042 -106.619498 190 5304ft 0kts
03-May-19 10:31 35.045999 -106.619582 189 5308ft 10kts
03-May-19 10:32 35.045382 -106.621313 196 5301ft 0kts
03-May-19 10:33 35.045143 -106.621350 182 5301ft 8kts
03-May-19 10:34 35.044371 -106.599981 86 5323ft 169kts
03-May-19 10:35 35.045547 -106.535234 60 7548ft 192kts
03-May-19 10:36 35.091626 -106.512786 325 9267ft 214kts
03-May-19 10:37 35.106182 -106.584818 264 11552ft 235kts
03-May-19 10:38 35.098317 -106.677540 266 12227ft 320kts
03-May-19 10:39 35.096859 -106.794150 282 14232ft 351kts
03-May-19 10:40 35.109023 -106.914744 260 16657ft 368kts
03-May-19 10:41 35.083931 -107.039510 258 18834ft 383kts
03-May-19 10:42 35.057999 -107.168585 258 20891ft 394kts
03-May-19 10:43 35.036350 -107.302214 270 22672ft 400kts
03-May-19 10:44 35.032526 -107.440461 270 24432ft 410kts
03-May-19 10:45 35.028102 -107.581800 270 26061ft 419kts
03-May-19 10:46 35.023525 -107.726372 269 27584ft 427kts
03-May-19 10:47 35.018647 -107.871640 269 29369ft 426kts
03-May-19 10:48 35.013569 -108.015160 269 31136ft 419kts
03-May-19 10:49 35.008376 -108.157194 269 32627ft 414kts
03-May-19 10:51 35.003081 -108.297556 270 33876ft 409kts
03-May-19 10:52 34.997645 -108.437593 270 34216ft 413kts
03-May-19 10:53 34.992072 -108.577445 270 34206ft 411kts
03-May-19 10:54 34.986363 -108.714892 269 34203ft 411kts
03-May-19 10:55 34.980213 -108.854955 269 34199ft 410kts
03-May-19 10:56 34.973933 -108.994283 269 34191ft 409kts
03-May-19 10:57 34.967471 -109.134063 268 34177ft 409kts
03-May-19 10:58 34.926421 -109.265665 249 34175ft 415kts
03-May-19 10:59 34.879535 -109.393687 249 34165ft 411kts
03-May-19 11:00 34.832574 -109.520721 249 34169ft 412kts
03-May-19 11:01 34.785444 -109.647864 248 34177ft 408kts
03-May-19 11:02 34.738224 -109.775390 248 34167ft 407kts
03-May-19 11:03 34.691171 -109.902140 248 34185ft 408kts
03-May-19 11:04 34.644119 -110.028592 248 34187ft 408kts
03-May-19 11:05 34.596897 -110.155170 248 34090ft 409kts
03-May-19 11:06 34.549209 -110.282542 248 33158ft 417kts
03-May-19 11:07 34.500986 -110.410764 248 32204ft 413kts
03-May-19 11:08 34.452871 -110.537040 248 31379ft 407kts
03-May-19 11:09 34.405042 -110.663167 248 30434ft 405kts
03-May-19 11:10 34.357639 -110.787586 245 29308ft 401kts
03-May-19 11:11 34.282199 -110.889327 230 27351ft 404kts
03-May-19 11:12 34.207411 -110.985770 230 25119ft 387kts
03-May-19 11:12 34.147969 -111.062416 230 23206ft 364kts
03-May-19 11:14 34.067342 -111.165901 230 20106ft 355kts
03-May-19 11:15 34.000401 -111.251783 229 18046ft 345kts
03-May-19 11:15 33.945789 -111.321706 229 16360ft 337kts
03-May-19 11:17 33.874270 -111.416201 238 14506ft 315kts
03-May-19 11:17 33.835494 -111.490221 239 13221ft 306kts
03-May-19 11:18 33.789455 -111.577884 238 12857ft 307kts
03-May-19 11:20 33.737145 -111.676177 238 11267ft 279kts
03-May-19 11:20 33.702556 -111.741314 238 10620ft 276kts
03-May-19 11:21 33.663023 -111.815814 238 10030ft 250kts
03-May-19 11:22 33.625225 -111.887135 238 10031ft 249kts
03-May-19 11:23 33.587736 -111.957470 238 8456ft 246kts
03-May-19 11:24 33.551137 -112.026148 238 7011ft 239kts
03-May-19 11:25 33.529100 -112.100755 260 5976ft 237kts
03-May-19 11:26 33.517946 -112.173241 260 5018ft 199kts
03-May-19 11:27 33.486431 -112.215745 160 4283ft 199kts
03-May-19 11:28 33.442612 -112.178384 143 2978ft 194kts
03-May-19 11:29 33.441991 -112.117709 89 2466ft 191kts
03-May-19 11:30 33.441219 -112.062886 89 1795ft 143kts
03-May-19 11:31 33.440870 -112.015478 91 1123ft 105kts
03-May-19 11:32 33.440193 -112.007246 137 1129ft 8kts
03-May-19 11:33 33.439704 -112.004153 122 1129ft 10kts
03-May-19 11:34 33.439029 -111.999648 90 1132ft 18kts
03-May-19 11:35 33.438240 -111.997376 128 1132ft 0kts
03-May-19 11:36 33.438240 -111.997376 128 1132ft 0kts
03-May-19 11:37 33.438240 -111.997376 128 1132ft 0kts
03-May-19 11:38 33.438240 -111.997376 128 1132ft 0kts

Navigation Log

Ident Type
Flight plan parsing failed, navigation log unavailable